Time;durP1;ratioP1;P1;durP2;ratioP2;P2;SDS_P1;SDS_P2;PMS_P1;PMS_P2;Temp;Humidity;BMP_temperature;BMP_pressure;BME280_temperature;BME280_humidity;BME280_pressure;Samples;Min_cycle;Max_cycle;Signal;HPM_P1;HPM_P2
2022/07/11 06:58:56;;;;;;;2.15;1.70;;;25.40;88.70;;;;;;5162564;22;20514;-75
2022/07/11 07:01:22;;;;;;;1.30;0.82;;;25.50;89.20;;;;;;5080165;22;20083;-75
2022/07/11 07:03:48;;;;;;;1.90;1.15;;;25.50;89.90;;;;;;5106626;28;20040;-75
2022/07/11 07:06:14;;;;;;;1.23;0.90;;;25.60;90.10;;;;;;5094404;28;20024;-75
2022/07/11 07:08:39;;;;;;;0.88;0.88;;;25.70;90.70;;;;;;5107288;28;20244;-74
2022/07/11 07:11:05;;;;;;;1.23;1.08;;;25.70;89.30;;;;;;5107365;28;20019;-75
2022/07/11 07:13:31;;;;;;;1.35;1.25;;;25.70;89.90;;;;;;5090587;28;20024;-75
2022/07/11 07:15:57;;;;;;;1.00;1.00;;;25.80;89.20;;;;;;5107772;28;20033;-75
2022/07/11 07:18:24;;;;;;;2.45;1.10;;;25.80;87.70;;;;;;5107915;28;20057;-74
2022/07/11 07:20:51;;;;;;;2.40;0.90;;;25.90;90.10;;;;;;5108295;28;20388;-75
2022/07/11 07:23:17;;;;;;;1.75;1.30;;;25.90;90.20;;;;;;5089646;28;20076;-74
2022/07/11 07:25:43;;;;;;;2.28;1.20;;;25.90;90.00;;;;;;5108336;28;20030;-74
2022/07/11 07:28:12;;;;;;;1.23;1.13;;;25.80;90.60;;;;;;5107383;28;20034;-75
2022/07/11 07:30:38;;;;;;;1.42;1.40;;;25.90;91.20;;;;;;5088948;28;20050;-75
2022/07/11 07:33:03;;;;;;;1.65;1.30;;;26.00;92.10;;;;;;5108298;28;20412;-75
2022/07/11 07:35:29;;;;;;;1.83;1.42;;;26.00;92.00;;;;;;5106673;28;20024;-75
2022/07/11 07:37:55;;;;;;;1.40;0.98;;;26.10;91.70;;;;;;5105648;28;20090;-75
2022/07/11 07:40:21;;;;;;;1.23;1.23;;;26.10;91.90;;;;;;5108383;28;20475;-75
2022/07/11 07:42:47;;;;;;;1.50;1.40;;;26.10;92.20;;;;;;5106663;28;20062;-75
2022/07/11 07:45:13;;;;;;;1.40;1.30;;;26.10;92.30;;;;;;5107744;28;20055;-75
2022/07/11 07:47:39;;;;;;;1.08;1.08;;;26.10;91.80;;;;;;5107550;28;20024;-75
2022/07/11 07:50:05;;;;;;;1.35;1.35;;;26.20;91.40;;;;;;5106935;28;20136;-75
2022/07/11 07:52:32;;;;;;;1.40;1.20;;;26.20;90.90;;;;;;5107919;28;20493;-75
2022/07/11 07:54:58;;;;;;;2.20;1.10;;;26.20;90.00;;;;;;5107058;28;20047;-75
2022/07/11 07:57:24;;;;;;;1.08;1.02;;;26.20;90.20;;;;;;5106417;28;20484;-74
2022/07/11 08:01:34;;;;;;;1.45;1.35;;;26.30;90.50;;;;;;5091733;28;20052;-75
2022/07/11 08:02:36;;;;;;;1.42;1.23;;;26.30;89.70;;;;;;5108976;28;20548;-75
2022/07/11 08:05:03;;;;;;;1.50;1.40;;;26.40;90.30;;;;;;5108715;28;20062;-74
2022/07/11 08:07:29;;;;;;;1.33;1.23;;;26.50;89.60;;;;;;5108691;28;20023;-75
2022/07/11 08:09:54;;;;;;;1.25;1.23;;;26.40;89.60;;;;;;5109645;28;20081;-74
2022/07/11 08:12:20;;;;;;;2.08;1.13;;;26.50;89.70;;;;;;5091009;28;20026;-74
2022/07/11 08:14:46;;;;;;;3.90;1.10;;;26.60;88.80;;;;;;5109008;28;20023;-74
2022/07/11 08:17:11;;;;;;;1.60;1.50;;;26.60;89.20;;;;;;5091303;28;20020;-74
2022/07/11 08:19:37;;;;;;;1.40;1.23;;;26.60;88.30;;;;;;5108497;28;20531;-75
2022/07/11 08:22:03;;;;;;;2.45;1.40;;;26.50;87.50;;;;;;5090379;28;20072;-74
2022/07/11 08:24:29;;;;;;;1.50;1.40;;;26.40;88.60;;;;;;5108932;28;20091;-75
2022/07/11 08:26:54;;;;;;;1.70;1.23;;;26.50;89.70;;;;;;5090476;28;20055;-75
2022/07/11 08:29:20;;;;;;;4.25;1.40;;;26.60;90.30;;;;;;5109495;28;20020;-75
2022/07/11 08:31:46;;;;;;;2.83;1.92;;;26.60;88.90;;;;;;5108645;28;20031;-75
2022/07/11 08:34:11;;;;;;;1.20;1.20;;;26.60;88.50;;;;;;5109108;28;20019;-75
2022/07/11 08:36:37;;;;;;;2.63;1.70;;;26.80;89.80;;;;;;5109253;28;20094;-74
2022/07/11 08:39:03;;;;;;;1.63;1.35;;;26.80;87.20;;;;;;5108362;28;20514;-75
2022/07/11 08:41:31;;;;;;;1.45;1.40;;;26.80;86.60;;;;;;5109321;28;20153;-75
2022/07/11 08:43:58;;;;;;;1.55;1.45;;;26.80;87.30;;;;;;5108620;28;20110;-75
2022/07/11 08:46:24;;;;;;;2.70;1.60;;;26.80;86.80;;;;;;5108267;28;20031;-74
2022/07/11 08:48:52;;;;;;;1.58;1.40;;;26.90;86.50;;;;;;5109150;28;20489;-75
2022/07/11 08:51:20;;;;;;;2.67;1.52;;;26.90;85.30;;;;;;5090286;28;20031;-74
2022/07/11 08:53:49;;;;;;;2.25;1.42;;;27.00;86.00;;;;;;5108445;28;20023;-74
2022/07/11 08:56:17;;;;;;;1.55;1.48;;;27.10;85.20;;;;;;5109244;28;20031;-75
2022/07/11 08:58:45;;;;;;;1.75;1.13;;;27.00;84.20;;;;;;5108563;28;20054;-75
2022/07/11 09:01:14;;;;;;;1.60;1.50;;;27.00;83.40;;;;;;5108270;28;20085;-75
2022/07/11 09:03:41;;;;;;;1.50;1.40;;;27.10;84.50;;;;;;5108716;28;20130;-75
2022/07/11 09:06:07;;;;;;;1.75;1.50;;;27.10;83.30;;;;;;5108931;28;20020;-75
2022/07/11 09:08:34;;;;;;;5.43;1.90;;;27.20;82.80;;;;;;5108041;28;20027;-75
2022/07/11 09:11:04;;;;;;;2.03;1.30;;;27.20;82.40;;;;;;5109162;28;20483;-75
2022/07/11 09:13:30;;;;;;;1.98;1.88;;;27.30;83.20;;;;;;5108721;28;20107;-75
2022/07/11 09:16:04;;;;;;;1.48;1.33;;;27.30;79.50;;;;;;5108313;28;20028;-75
2022/07/11 09:18:37;;;;;;;2.30;1.42;;;27.30;80.40;;;;;;5108071;28;20016;-74
2022/07/11 09:26:48;;;;;;;1.20;1.20;;;27.50;79.70;;;;;;5109312;28;20509;-76
2022/07/11 09:29:16;;;;;;;1.65;1.50;;;27.60;79.80;;;;;;5108127;28;20027;-75
2022/07/11 09:31:44;;;;;;;6.97;1.63;;;27.60;77.80;;;;;;5089814;28;20023;-75
2022/07/11 09:34:13;;;;;;;2.50;1.30;;;27.60;77.40;;;;;;5111070;28;20016;-75
2022/07/11 09:36:41;;;;;;;1.38;1.27;;;27.60;78.00;;;;;;5112315;28;20080;-75
2022/07/11 09:39:10;;;;;;;2.55;1.58;;;27.80;78.00;;;;;;5111395;28;20591;-75
2022/07/11 09:41:37;;;;;;;3.25;1.17;;;27.80;75.20;;;;;;5093816;28;20020;-75
2022/07/11 09:44:14;;;;;;;1.50;1.40;;;27.80;75.30;;;;;;5112367;28;20027;-75
2022/07/11 09:46:50;;;;;;;1.45;1.35;;;27.90;75.10;;;;;;5093729;28;20410;-75
2022/07/11 09:49:28;;;;;;;1.50;1.27;;;27.80;75.10;;;;;;5111522;28;20040;-75
2022/07/11 09:52:14;;;;;;;1.17;1.10;;;27.80;74.50;;;;;;5093630;28;20433;-75
2022/07/11 09:54:56;;;;;;;1.73;1.63;;;27.90;75.00;;;;;;5111602;28;20039;-75
2022/07/11 09:57:36;;;;;;;2.63;1.98;;;27.90;73.90;;;;;;5110741;28;20385;-75
2022/07/11 10:00:14;;;;;;;2.05;1.50;;;28.00;72.20;;;;;;5111618;28;20042;-75
2022/07/11 10:02:40;;;;;;;1.40;1.30;;;28.00;69.80;;;;;;5111539;28;20042;-75
2022/07/11 10:05:06;;;;;;;3.30;1.08;;;28.00;70.60;;;;;;5093574;28;20119;-75
2022/07/11 10:07:33;;;;;;;7.07;1.80;;;28.20;73.00;;;;;;5110884;28;20031;-75
2022/07/11 10:09:59;;;;;;;2.13;1.40;;;28.20;69.70;;;;;;5111871;28;20034;-75
2022/07/11 10:12:27;;;;;;;1.30;1.20;;;28.20;71.50;;;;;;5111363;28;20016;-75
2022/07/11 10:14:54;;;;;;;4.07;1.88;;;28.30;69.60;;;;;;5110993;28;20107;-75
2022/07/11 10:17:28;;;;;;;1.50;1.40;;;28.40;68.90;;;;;;5111763;28;20035;-75
2022/07/11 10:20:21;;;;;;;1.23;1.17;;;28.30;68.90;;;;;;5093167;28;20028;-75
2022/07/11 10:23:06;;;;;;;1.10;1.10;;;28.50;71.40;;;;;;5092623;28;20429;-75
2022/07/11 10:25:40;;;;;;;1.40;1.30;;;28.70;67.50;;;;;;5110857;28;20497;-75
2022/07/11 10:28:47;;;;;;;1.63;1.15;;;28.70;67.70;;;;;;5110516;28;20502;-74
2022/07/11 10:31:22;;;;;;;2.83;1.35;;;28.80;67.40;;;;;;5008001;28;20030;-74
2022/07/11 10:34:04;;;;;;;1.33;1.25;;;28.90;67.20;;;;;;4992896;28;20030;-74
2022/07/11 10:36:31;;;;;;;1.15;1.10;;;29.00;66.20;;;;;;5074589;28;20040;-74
2022/07/11 10:39:26;;;;;;;1.30;1.27;;;29.10;66.40;;;;;;5112434;28;20406;-75
2022/07/11 10:41:53;;;;;;;2.55;2.35;;;29.10;65.80;;;;;;5111991;28;20032;-74
2022/07/11 10:44:22;;;;;;;5.88;5.38;;;29.70;66.90;;;;;;5111613;28;20020;-74
2022/07/11 10:46:48;;;;;;;2.35;2.25;;;36.10;57.70;;;;;;5112215;28;20034;-74
2022/07/11 10:49:14;;;;;;;3.33;2.33;;;35.20;51.20;;;;;;5111619;28;20385;-74
2022/07/11 10:51:52;;;;;;;48.58;8.32;;;35.80;52.70;;;;;;5111864;28;20439;-74
2022/07/11 10:54:44;;;;;;;5.90;1.83;;;35.30;49.60;;;;;;5111817;28;20443;-74
2022/07/11 10:57:28;;;;;;;;;;;34.00;50.60;;;;;;5112189;28;20610;-74
2022/07/11 11:00:08;;;;;;;2.25;1.30;;;33.10;50.50;;;;;;5112165;28;20048;-74
2022/07/11 11:03:06;;;;;;;2.10;1.30;;;32.60;53.10;;;;;;5111701;28;20051;-74
2022/07/11 11:05:53;;;;;;;1.27;1.10;;;32.20;53.30;;;;;;5110208;28;20106;-75
2022/07/11 11:08:35;;;;;;;1.48;1.35;;;31.70;54.00;;;;;;5112200;28;20706;-75
2022/07/11 11:11:35;;;;;;;1.40;1.30;;;31.30;54.70;;;;;;5112009;28;20026;-74
2022/07/11 11:14:27;;;;;;;1.20;1.20;;;31.30;55.50;;;;;;5084714;28;20024;-74
2022/07/11 11:16:53;;;;;;;1.98;1.17;;;31.40;55.10;;;;;;5107123;28;20045;-74
2022/07/11 11:19:47;;;;;;;2.38;1.48;;;31.40;54.70;;;;;;5111494;28;20489;-74
2022/07/11 11:22:14;;;;;;;1.20;1.10;;;31.30;53.60;;;;;;5111249;28;20016;-74
2022/07/11 11:24:44;;;;;;;1.50;1.40;;;30.90;54.80;;;;;;5111852;28;20020;-74
2022/07/11 11:27:23;;;;;;;3.95;1.67;;;30.90;56.50;;;;;;5110869;28;20024;-74
2022/07/11 11:29:54;;;;;;;2.95;1.52;;;30.90;55.50;;;;;;5111072;28;20031;-74
2022/07/11 11:32:21;;;;;;;1.98;1.80;;;30.90;57.20;;;;;;5111039;28;20031;-74
2022/07/11 11:34:47;;;;;;;1.50;1.40;;;31.00;56.80;;;;;;5110774;28;20035;-74
2022/07/11 11:37:16;;;;;;;1.40;1.30;;;31.00;57.00;;;;;;5111014;28;20027;-74
2022/07/11 11:39:41;;;;;;;1.35;1.35;;;31.20;57.50;;;;;;5110558;28;20111;-74
2022/07/11 11:42:16;;;;;;;3.20;1.50;;;31.60;57.30;;;;;;5111019;28;20142;-74
2022/07/11 11:44:56;;;;;;;1.85;1.60;;;31.50;55.50;;;;;;5111539;28;20028;-74
2022/07/11 11:47:23;;;;;;;4.03;1.60;;;31.40;55.00;;;;;;5111194;28;20031;-74
2022/07/11 11:49:50;;;;;;;1.85;1.40;;;31.40;55.60;;;;;;5110903;28;20011;-74
2022/07/11 11:52:17;;;;;;;1.42;1.27;;;31.40;52.90;;;;;;5110775;28;20032;-74
2022/07/11 11:54:43;;;;;;;1.30;1.20;;;31.60;55.10;;;;;;5111335;28;20019;-74
2022/07/11 11:57:13;;;;;;;2.42;1.33;;;31.50;54.40;;;;;;5110376;28;20106;-74
2022/07/11 11:59:40;;;;;;;1.50;1.40;;;31.40;54.20;;;;;;5110311;28;20028;-74
2022/07/11 12:02:06;;;;;;;2.28;2.00;;;31.20;54.00;;;;;;5110790;28;20491;-74
2022/07/11 12:04:34;;;;;;;3.33;1.30;;;31.20;54.00;;;;;;5109815;28;20024;-74
2022/07/11 12:07:03;;;;;;;6.35;1.30;;;31.40;54.20;;;;;;5109451;28;20092;-74
2022/07/11 12:09:50;;;;;;;1.77;1.67;;;31.60;54.30;;;;;;5110517;28;20040;-74
2022/07/11 12:15:06;;;;;;;2.55;1.55;;;31.60;54.20;;;;;;5110246;28;20042;-74
2022/07/11 12:17:33;;;;;;;2.03;1.50;;;31.50;53.80;;;;;;5110267;28;20110;-74
2022/07/11 12:19:58;;;;;;;1.65;1.10;;;31.60;54.10;;;;;;5110609;28;20038;-74
2022/07/11 12:22:25;;;;;;;1.67;1.58;;;31.90;55.50;;;;;;5110126;28;20526;-74
2022/07/11 12:24:52;;;;;;;2.45;1.55;;;31.90;54.30;;;;;;5110399;28;20499;-75
2022/07/11 12:27:23;;;;;;;2.13;1.30;;;32.10;54.60;;;;;;5092542;28;20063;-74
2022/07/11 12:29:51;;;;;;;1.42;1.42;;;32.20;54.00;;;;;;5110076;28;20016;-74
2022/07/11 12:32:19;;;;;;;1.50;1.40;;;32.50;55.00;;;;;;5110291;28;20039;-74
2022/07/11 12:34:46;;;;;;;2.83;1.40;;;32.70;53.50;;;;;;5110760;28;20026;-74
2022/07/11 12:37:19;;;;;;;3.17;1.38;;;32.50;52.40;;;;;;5108774;28;20463;-74
2022/07/11 12:39:52;;;;;;;1.75;1.65;;;32.30;53.10;;;;;;5108207;28;20020;-74
2022/07/11 12:42:34;;;;;;;1.20;1.20;;;31.70;52.70;;;;;;5109412;28;20032;-74
2022/07/11 12:45:07;;;;;;;1.42;1.33;;;31.50;53.70;;;;;;5110177;28;20024;-74
2022/07/11 12:47:44;;;;;;;2.55;1.80;;;31.20;54.10;;;;;;5109664;28;20501;-74
2022/07/11 12:50:20;;;;;;;1.40;1.40;;;31.20;54.00;;;;;;5109430;28;20034;-75
2022/07/11 12:52:49;;;;;;;2.08;1.42;;;31.10;54.20;;;;;;5110065;28;20034;-74
2022/07/11 12:55:34;;;;;;;2.30;1.45;;;31.20;55.70;;;;;;5110665;28;20020;-74
2022/07/11 12:58:08;;;;;;;1.60;1.45;;;31.10;54.80;;;;;;5110233;28;20022;-74
2022/07/11 13:00:58;;;;;;;1.95;1.73;;;31.10;55.70;;;;;;5092262;28;20024;-74
2022/07/11 13:03:37;;;;;;;1.77;1.42;;;31.30;55.80;;;;;;5091322;28;20048;-75
2022/07/11 13:06:07;;;;;;;1.95;1.42;;;31.40;53.30;;;;;;5109963;28;20030;-74
2022/07/11 13:08:46;;;;;;;2.47;1.42;;;31.60;53.50;;;;;;5111092;28;20111;-75
2022/07/11 13:11:16;;;;;;;1.60;1.50;;;31.90;52.80;;;;;;5113947;28;20031;-74
2022/07/11 13:13:44;;;;;;;1.90;1.80;;;32.30;54.30;;;;;;5114495;28;20023;-74
2022/07/11 13:16:10;;;;;;;1.27;1.27;;;32.40;53.50;;;;;;5113765;28;20038;-74
2022/07/11 13:18:36;;;;;;;1.52;1.42;;;32.50;52.90;;;;;;5113581;28;20019;-75
2022/07/11 13:21:03;;;;;;;2.97;1.48;;;32.60;52.90;;;;;;5114253;28;20081;-74
2022/07/11 13:23:29;;;;;;;1.52;1.48;;;32.40;52.60;;;;;;5113410;28;20027;-74
2022/07/11 13:25:56;;;;;;;2.55;1.30;;;32.00;52.40;;;;;;5113781;28;20107;-75
2022/07/11 13:28:25;;;;;;;1.85;1.48;;;31.80;53.20;;;;;;5113486;28;20102;-75
2022/07/11 13:30:51;;;;;;;2.38;1.30;;;32.00;53.00;;;;;;5113462;28;20073;-75
2022/07/11 13:33:18;;;;;;;3.25;1.52;;;32.20;53.30;;;;;;5113779;28;20126;-75
2022/07/11 13:35:45;;;;;;;1.40;1.30;;;32.20;52.40;;;;;;5095446;28;20510;-75
2022/07/11 13:38:11;;;;;;;2.45;1.40;;;32.40;51.80;;;;;;5092946;28;20118;-75
2022/07/11 13:40:37;;;;;;;2.15;1.70;;;32.60;52.90;;;;;;5106831;28;20427;-74
2022/07/11 13:43:03;;;;;;;1.60;1.38;;;32.50;52.10;;;;;;5110370;28;20022;-75
2022/07/11 13:45:29;;;;;;;2.10;1.35;;;32.80;52.50;;;;;;5105013;28;20020;-75
2022/07/11 13:47:55;;;;;;;1.30;1.30;;;33.00;52.10;;;;;;5111707;28;20103;-75
2022/07/11 13:50:21;;;;;;;1.35;1.35;;;33.20;50.20;;;;;;5111385;28;20019;-74
2022/07/11 13:52:50;;;;;;;1.38;1.27;;;33.20;50.70;;;;;;5113492;28;20351;-74
2022/07/11 13:55:22;;;;;;;3.80;1.75;;;33.20;50.50;;;;;;5112928;28;20024;-74
2022/07/11 13:57:51;;;;;;;1.80;1.35;;;33.00;49.40;;;;;;5093438;28;20028;-74
2022/07/11 14:00:18;;;;;;;1.30;1.30;;;33.00;51.10;;;;;;5113411;28;20024;-74
2022/07/11 14:02:45;;;;;;;1.48;1.38;;;32.90;51.20;;;;;;5112297;28;20079;-74
2022/07/11 14:05:10;;;;;;;2.50;1.70;;;33.00;51.60;;;;;;5112264;28;20102;-75
2022/07/11 14:07:37;;;;;;;2.50;1.42;;;33.20;51.60;;;;;;5113006;28;20115;-74
2022/07/11 14:10:04;;;;;;;1.55;1.40;;;33.20;50.50;;;;;;5093963;28;20390;-74
2022/07/11 14:12:31;;;;;;;2.00;1.83;;;33.20;50.20;;;;;;5078283;28;20053;-73
2022/07/11 14:14:57;;;;;;;2.03;1.48;;;33.50;51.20;;;;;;5074041;28;20012;-74
2022/07/11 14:17:25;;;;;;;1.33;1.23;;;33.90;50.60;;;;;;5091629;28;20398;-75
2022/07/11 14:19:52;;;;;;;1.35;1.30;;;33.70;48.10;;;;;;5091037;28;20024;-73
2022/07/11 14:22:18;;;;;;;2.63;1.40;;;33.90;48.40;;;;;;5091884;28;20097;-75
2022/07/11 14:24:44;;;;;;;0.93;0.93;;;33.90;49.40;;;;;;5091595;28;20099;-73
2022/07/11 14:27:10;;;;;;;4.38;1.63;;;34.00;48.70;;;;;;5092127;28;20546;-75
2022/07/11 14:29:36;;;;;;;2.85;1.23;;;34.30;49.40;;;;;;5090837;28;20024;-75
2022/07/11 14:32:02;;;;;;;1.70;1.00;;;34.30;47.30;;;;;;5073801;28;20030;-76
2022/07/11 14:34:29;;;;;;;1.23;1.20;;;34.40;49.00;;;;;;5073477;28;20048;-73
2022/07/11 14:36:55;;;;;;;1.23;1.13;;;34.40;48.50;;;;;;5072942;28;20058;-73
2022/07/11 14:39:21;;;;;;;1.42;1.33;;;34.60;48.50;;;;;;5111137;28;20020;-73
2022/07/11 14:41:47;;;;;;;1.73;1.40;;;34.90;49.00;;;;;;5091601;28;20039;-74
2022/07/11 14:44:14;;;;;;;1.75;1.50;;;35.20;47.90;;;;;;5073621;28;20031;-75
2022/07/11 14:46:41;;;;;;;1.42;1.27;;;35.50;47.40;;;;;;5091960;28;20043;-74
2022/07/11 14:49:08;;;;;;;3.10;1.35;;;35.40;46.80;;;;;;5073082;28;20028;-75
2022/07/11 14:51:35;;;;;;;2.58;1.48;;;35.60;47.20;;;;;;5091822;28;20024;-74
2022/07/11 14:54:01;;;;;;;3.50;1.42;;;35.50;46.40;;;;;;5091615;28;20020;-73
2022/07/11 14:56:27;;;;;;;2.75;1.25;;;35.00;45.40;;;;;;5073172;28;20078;-74
2022/07/11 14:58:53;;;;;;;1.95;1.63;;;35.20;45.70;;;;;;5073432;28;20028;-74
2022/07/11 15:01:19;;;;;;;2.70;1.83;;;35.30;46.00;;;;;;5091032;28;20028;-75
2022/07/11 15:03:44;;;;;;;1.50;1.40;;;34.90;45.80;;;;;;5091122;28;20563;-74
2022/07/11 15:06:15;;;;;;;1.35;1.25;;;35.30;46.40;;;;;;5091720;28;20244;-74
2022/07/11 15:14:13;;;;;;;1.50;1.40;;;34.60;47.30;;;;;;5091313;28;20161;-75
2022/07/11 15:16:39;;;;;;;2.67;1.38;;;34.80;47.70;;;;;;5072751;28;20107;-74
2022/07/11 15:19:06;;;;;;;2.42;1.40;;;35.10;46.00;;;;;;5090775;28;20153;-75
2022/07/11 15:21:33;;;;;;;1.45;1.20;;;35.10;46.20;;;;;;5104372;28;20035;-75
2022/07/11 15:24:00;;;;;;;1.58;1.08;;;34.80;45.80;;;;;;5076700;28;20028;-74
2022/07/11 15:26:26;;;;;;;1.02;1.00;;;34.50;48.00;;;;;;5092940;28;20489;-75
2022/07/11 15:28:52;;;;;;;2.45;1.20;;;34.70;47.40;;;;;;5111615;28;20102;-75
2022/07/11 15:31:19;;;;;;;1.52;1.35;;;34.50;47.00;;;;;;5110434;28;20026;-76
2022/07/11 15:33:46;;;;;;;1.10;1.00;;;34.80;47.50;;;;;;5092616;28;20019;-75
2022/07/11 15:36:17;;;;;;;1.13;1.00;;;35.00;47.40;;;;;;5114092;28;20069;-74
2022/07/11 15:38:47;;;;;;;2.50;1.10;;;35.10;46.90;;;;;;5096069;28;20463;-74
2022/07/11 15:41:17;;;;;;;1.63;1.00;;;35.10;47.10;;;;;;5096316;28;20114;-74
2022/07/11 15:43:43;;;;;;;1.35;1.25;;;35.30;47.20;;;;;;5114340;28;20027;-74
2022/07/11 15:46:09;;;;;;;2.65;1.25;;;35.50;46.80;;;;;;5114470;28;20046;-74
2022/07/11 15:48:35;;;;;;;1.35;1.25;;;35.40;47.00;;;;;;5114089;28;20023;-73
2022/07/11 15:51:01;;;;;;;2.10;1.30;;;35.60;48.00;;;;;;5114090;28;20089;-74
2022/07/11 15:53:27;;;;;;;3.17;1.40;;;35.80;46.20;;;;;;5114033;28;20047;-74
2022/07/11 15:55:53;;;;;;;1.45;1.33;;;35.60;46.20;;;;;;5095889;28;20051;-77
2022/07/11 15:58:21;;;;;;;2.80;1.60;;;35.70;47.00;;;;;;5114072;28;20031;-77
2022/07/11 16:00:48;;;;;;;1.55;1.27;;;36.00;46.50;;;;;;5114126;28;20024;-77
2022/07/11 16:03:13;;;;;;;3.58;1.60;;;36.70;46.80;;;;;;5113818;28;20502;-77
2022/07/11 16:05:39;;;;;;;7.40;1.02;;;36.60;44.70;;;;;;5113838;28;20047;-77
2022/07/11 16:08:05;;;;;;;2.75;1.20;;;36.30;45.10;;;;;;5113674;28;20457;-76
2022/07/11 16:10:31;;;;;;;2.03;1.50;;;36.30;45.20;;;;;;5113819;28;20038;-77
2022/07/11 16:12:57;;;;;;;1.83;1.27;;;36.00;44.90;;;;;;5113956;28;20145;-77
2022/07/11 16:15:23;;;;;;;2.13;1.30;;;35.60;46.10;;;;;;5113741;28;20149;-77
2022/07/11 16:17:48;;;;;;;1.50;1.27;;;35.40;46.80;;;;;;5113901;28;20055;-77
2022/07/11 16:20:15;;;;;;;2.60;0.98;;;35.00;46.70;;;;;;5113639;28;20368;-77
2022/07/11 16:22:41;;;;;;;1.92;1.30;;;34.80;47.50;;;;;;5113670;28;20169;-77
2022/07/11 16:25:09;;;;;;;1.45;1.10;;;34.60;47.50;;;;;;5113830;28;20023;-77
2022/07/11 16:27:35;;;;;;;1.83;1.10;;;35.00;48.00;;;;;;5095368;28;20028;-77
2022/07/11 16:30:03;;;;;;;1.35;1.30;;;34.80;46.10;;;;;;5095372;28;20019;-77
2022/07/11 16:32:29;;;;;;;3.33;1.10;;;35.30;46.60;;;;;;5113604;28;20496;-77
2022/07/11 16:34:55;;;;;;;1.10;0.98;;;35.70;46.00;;;;;;5113577;28;20080;-77
2022/07/11 16:37:21;;;;;;;9.30;1.58;;;35.10;45.70;;;;;;5113520;28;20028;-77
2022/07/11 16:45:15;;;;;;;4.03;1.33;;;33.90;47.40;;;;;;5117686;28;20498;-77
2022/07/11 16:47:41;;;;;;;1.75;1.23;;;33.60;47.80;;;;;;5117453;28;20027;-77
2022/07/11 16:50:09;;;;;;;1.67;1.20;;;33.30;48.20;;;;;;5117613;28;20020;-77
2022/07/11 16:52:39;;;;;;;2.17;1.02;;;33.40;49.50;;;;;;5117874;28;20061;-77
2022/07/11 16:55:05;;;;;;;1.40;1.27;;;33.50;49.30;;;;;;5099215;28;20012;-77
2022/07/11 16:57:31;;;;;;;2.30;1.15;;;33.30;49.30;;;;;;5117533;28;20482;-77
2022/07/11 16:59:59;;;;;;;2.75;1.10;;;33.60;49.50;;;;;;5117377;28;20028;-77
2022/07/11 17:02:24;;;;;;;1.70;1.13;;;33.90;49.50;;;;;;5098867;28;20071;-77
2022/07/11 17:04:51;;;;;;;2.65;1.15;;;34.30;48.50;;;;;;5117316;28;20543;-77
2022/07/11 17:07:17;;;;;;;1.10;1.00;;;34.60;48.60;;;;;;5117242;28;20019;-77
2022/07/11 17:09:43;;;;;;;1.17;1.08;;;34.60;48.30;;;;;;5117363;28;20028;-77
2022/07/11 17:12:11;;;;;;;1.20;1.10;;;34.80;48.90;;;;;;5117381;28;20517;-77
2022/07/11 17:14:37;;;;;;;1.20;1.10;;;34.70;47.90;;;;;;5117045;28;20042;-77
2022/07/11 17:17:03;;;;;;;1.30;1.05;;;34.30;48.50;;;;;;5117203;28;20027;-77
2022/07/11 17:19:29;;;;;;;1.63;1.10;;;34.10;48.90;;;;;;5098701;28;20428;-77
2022/07/11 17:21:55;;;;;;;3.80;1.00;;;33.70;49.00;;;;;;5116950;28;20020;-74
2022/07/11 17:24:20;;;;;;;3.92;1.58;;;33.50;49.20;;;;;;5117087;28;20027;-74
2022/07/11 17:26:46;;;;;;;2.97;1.67;;;33.50;50.10;;;;;;5116882;28;20023;-74
2022/07/11 17:29:12;;;;;;;1.33;1.23;;;33.40;49.80;;;;;;5116740;28;20036;-74
2022/07/11 17:31:39;;;;;;;3.22;1.25;;;33.30;51.00;;;;;;5098537;28;20031;-74
2022/07/11 17:34:06;;;;;;;1.52;1.42;;;32.80;50.70;;;;;;5116997;28;20015;-74
2022/07/11 17:36:32;;;;;;;2.08;1.40;;;32.70;51.10;;;;;;5098377;28;20394;-74
2022/07/11 17:38:58;;;;;;;1.00;1.00;;;32.60;51.60;;;;;;5116705;28;20034;-74
2022/07/11 17:41:25;;;;;;;1.13;1.13;;;32.60;52.30;;;;;;5098282;28;20019;-74
2022/07/11 17:43:52;;;;;;;1.35;1.20;;;32.60;52.00;;;;;;5116445;28;20047;-74
2022/07/11 17:46:18;;;;;;;2.13;1.80;;;32.60;52.20;;;;;;5116562;28;20031;-74
2022/07/11 17:48:44;;;;;;;1.55;1.40;;;32.60;52.10;;;;;;5116312;28;20395;-74
2022/07/11 17:51:10;;;;;;;3.13;1.10;;;32.30;52.10;;;;;;5116590;28;20020;-74
2022/07/11 17:53:36;;;;;;;1.90;1.42;;;32.30;52.70;;;;;;5116476;28;20016;-74
2022/07/11 17:56:07;;;;;;;4.50;1.23;;;32.30;52.90;;;;;;5097724;28;20047;-74
2022/07/11 17:58:33;;;;;;;1.35;1.25;;;32.10;52.80;;;;;;5116157;28;20049;-74
2022/07/11 18:00:59;;;;;;;4.18;1.35;;;32.10;53.10;;;;;;5116202;28;20016;-74
2022/07/11 18:03:25;;;;;;;3.45;1.23;;;32.00;53.40;;;;;;5116148;28;20047;-74
2022/07/11 18:05:51;;;;;;;3.00;1.20;;;31.80;53.70;;;;;;5116292;28;20020;-74
2022/07/11 18:08:17;;;;;;;2.15;1.45;;;31.70;54.10;;;;;;5115989;28;20044;-74
2022/07/11 18:10:43;;;;;;;1.98;1.30;;;31.60;54.30;;;;;;5115896;28;20360;-74
2022/07/11 18:13:08;;;;;;;1.75;1.20;;;31.60;54.60;;;;;;5116040;28;20015;-74
2022/07/11 18:15:35;;;;;;;3.60;1.42;;;31.50;55.00;;;;;;5097733;28;20027;-74
2022/07/11 18:18:00;;;;;;;3.83;1.45;;;31.40;54.90;;;;;;5097716;28;20035;-74
2022/07/11 18:20:26;;;;;;;4.03;1.55;;;31.30;55.10;;;;;;5115896;28;20028;-74
2022/07/11 18:22:52;;;;;;;3.35;1.55;;;31.20;55.00;;;;;;5115893;28;20028;-74
2022/07/11 18:25:17;;;;;;;2.92;1.10;;;31.20;55.10;;;;;;5115799;28;20047;-74
2022/07/11 18:27:43;;;;;;;1.70;1.38;;;31.00;55.60;;;;;;5097258;28;20421;-74
2022/07/11 18:30:11;;;;;;;3.47;1.20;;;31.00;56.00;;;;;;5115679;28;20016;-74
2022/07/11 18:32:37;;;;;;;1.20;1.10;;;30.90;56.40;;;;;;5115575;28;20479;-74
2022/07/11 18:35:07;;;;;;;1.33;1.02;;;30.80;56.80;;;;;;5097328;28;20111;-73
2022/07/11 18:37:33;;;;;;;1.38;1.25;;;30.60;57.10;;;;;;5115586;28;20054;-74
2022/07/11 18:42:43;;;;;;;4.28;2.35;;;30.40;58.30;;;;;;5115551;28;20072;-73
2022/07/11 18:45:09;;;;;;;2.30;1.45;;;30.10;59.90;;;;;;5115518;28;20032;-73
2022/07/11 18:47:36;;;;;;;2.90;1.48;;;30.10;59.90;;;;;;5115341;28;20023;-73
2022/07/11 18:50:03;;;;;;;2.38;1.40;;;30.10;60.60;;;;;;5115255;28;20081;-73
2022/07/11 18:52:29;;;;;;;1.67;1.35;;;30.10;61.40;;;;;;5115252;28;20478;-73
2022/07/11 18:54:55;;;;;;;1.50;1.38;;;30.00;62.50;;;;;;5115215;28;20031;-73
2022/07/11 18:57:21;;;;;;;2.28;1.45;;;29.90;62.70;;;;;;5115058;28;20047;-73
2022/07/11 18:59:47;;;;;;;2.72;1.42;;;29.70;63.30;;;;;;5115043;28;20032;-73
2022/07/11 19:02:13;;;;;;;4.35;1.35;;;29.60;63.80;;;;;;5114654;28;20112;-73
2022/07/11 19:04:39;;;;;;;2.67;1.08;;;29.50;64.00;;;;;;5096722;28;20436;-73
2022/07/11 19:07:05;;;;;;;2.88;1.08;;;29.40;63.80;;;;;;5114253;28;20039;-73
2022/07/11 19:09:31;;;;;;;2.50;1.10;;;29.40;63.90;;;;;;5096583;28;20379;-73
2022/07/11 19:11:56;;;;;;;3.85;1.20;;;29.00;63.50;;;;;;5114947;28;20055;-73
2022/07/11 19:14:22;;;;;;;1.60;0.98;;;29.00;64.20;;;;;;5096465;28;20027;-73
2022/07/11 19:16:48;;;;;;;1.83;1.10;;;28.90;64.50;;;;;;5114874;28;20554;-78
2022/07/11 19:19:14;;;;;;;2.05;1.25;;;28.80;64.90;;;;;;5114776;28;20559;-78
2022/07/11 19:21:40;;;;;;;1.02;0.90;;;28.60;65.30;;;;;;5114735;28;20165;-77
2022/07/11 19:24:08;;;;;;;1.13;0.88;;;28.60;66.00;;;;;;5114648;28;20024;-78
2022/07/11 19:26:34;;;;;;;1.17;1.08;;;28.50;66.20;;;;;;5114609;28;20031;-78
2022/07/11 19:29:00;;;;;;;1.00;1.00;;;28.50;66.30;;;;;;5114281;28;20055;-78
2022/07/11 19:31:26;;;;;;;0.80;0.80;;;28.60;66.60;;;;;;5114657;28;20101;-77
2022/07/11 19:33:52;;;;;;;1.55;1.10;;;28.50;66.80;;;;;;5114572;28;20008;-78
2022/07/11 19:36:18;;;;;;;4.38;1.20;;;28.50;67.00;;;;;;5114518;28;20032;-78
2022/07/11 19:38:44;;;;;;;4.22;1.17;;;28.40;67.40;;;;;;5114198;28;20474;-78
2022/07/11 19:41:11;;;;;;;6.90;1.23;;;28.40;67.50;;;;;;5114391;28;20027;-78
2022/07/11 19:43:38;;;;;;;0.90;0.90;;;28.40;67.50;;;;;;5095974;28;20066;-78
2022/07/11 19:46:04;;;;;;;1.35;0.88;;;28.40;67.40;;;;;;5095987;28;20440;-78
2022/07/11 19:48:31;;;;;;;2.65;1.20;;;28.40;67.50;;;;;;5114201;28;20106;-78
2022/07/11 19:50:56;;;;;;;3.30;1.15;;;28.30;67.70;;;;;;5114088;28;20023;-77
2022/07/11 19:53:22;;;;;;;1.00;0.98;;;28.30;67.80;;;;;;5114105;28;20084;-77
2022/07/11 19:58:34;;;;;;;8.05;1.05;;;28.10;68.70;;;;;;5114300;28;20038;-77
2022/07/11 20:01:00;;;;;;;7.95;1.10;;;28.00;68.80;;;;;;5113829;28;20398;-77
2022/07/11 20:03:28;;;;;;;3.92;1.38;;;28.00;68.30;;;;;;5113839;28;20043;-78
2022/07/11 20:05:54;;;;;;;3.15;1.45;;;28.10;68.30;;;;;;5114139;28;20501;-78
2022/07/11 20:08:20;;;;;;;2.50;0.90;;;27.90;68.70;;;;;;5113904;28;20031;-78
2022/07/11 20:10:46;;;;;;;5.28;1.85;;;27.80;69.20;;;;;;5113790;28;20386;-78
2022/07/11 20:13:11;;;;;;;1.85;1.20;;;27.70;69.30;;;;;;5113549;28;20039;-78
2022/07/11 20:15:38;;;;;;;0.90;0.90;;;27.70;69.60;;;;;;5113389;28;20027;-78
2022/07/11 20:18:05;;;;;;;2.53;0.80;;;27.60;69.90;;;;;;5112756;28;20498;-77